createdAt,value
2018-12-29T00:01:58.005Z,27.63
2018-12-29T00:04:40.542Z,29.63
2018-12-29T00:07:11.314Z,28.63
2018-12-29T00:09:42.405Z,32.67
2018-12-29T00:12:13.288Z,32.37
2018-12-29T00:14:44.076Z,30.07
2018-12-29T00:17:14.982Z,31.23
2018-12-29T00:19:46.652Z,29.60
2018-12-29T00:22:17.421Z,28.20
2018-12-29T00:25:00.553Z,29.37
2018-12-29T00:27:43.098Z,26.63
2018-12-29T00:30:28.708Z,31.00
2018-12-29T00:33:13.705Z,29.33
2018-12-29T00:35:44.633Z,29.10
2018-12-29T00:38:27.203Z,27.20
2018-12-29T00:41:09.822Z,27.57
2018-12-29T00:43:40.783Z,28.77
2018-12-29T00:46:23.552Z,28.13
2018-12-29T00:49:06.361Z,27.30
2018-12-29T00:51:37.150Z,27.83
2018-12-29T00:54:07.897Z,27.57
2018-12-29T00:56:38.700Z,27.37
2018-12-29T00:59:09.532Z,25.97
2018-12-29T01:01:40.401Z,25.57
2018-12-29T01:04:22.829Z,26.97
2018-12-29T01:06:53.561Z,26.10
2018-12-29T01:09:36.446Z,26.83
2018-12-29T01:12:19.517Z,25.87
2018-12-29T01:14:50.438Z,28.17
2018-12-29T01:17:33.434Z,28.60
2018-12-29T01:20:16.033Z,27.27
2018-12-29T01:22:58.572Z,26.23
2018-12-29T01:25:29.613Z,26.10
2018-12-29T01:28:12.307Z,26.43
2018-12-29T01:30:43.244Z,25.93
2018-12-29T01:33:14.101Z,26.10
2018-12-29T01:35:44.904Z,25.43
2018-12-29T01:38:15.694Z,25.30
2018-12-29T01:40:46.575Z,24.33
2018-12-29T01:43:17.430Z,25.57
2018-12-29T01:45:48.372Z,23.10
2018-12-29T01:48:19.094Z,25.20
2018-12-29T01:50:49.986Z,25.57
2018-12-29T01:53:20.701Z,23.83
2018-12-29T01:55:51.610Z,24.10
2018-12-29T01:58:22.329Z,23.70
2018-12-29T02:00:53.273Z,24.70
2018-12-29T02:03:24.004Z,27.00
2018-12-29T02:05:55.005Z,28.57
2018-12-29T02:08:25.790Z,30.67
2018-12-29T02:10:56.677Z,30.60
2018-12-29T02:13:27.453Z,29.90
2018-12-29T02:15:58.329Z,31.23
2018-12-29T02:18:29.185Z,32.57
2018-12-29T02:21:00.088Z,30.63
2018-12-29T02:23:31.249Z,31.97
2018-12-29T02:26:02.157Z,32.10
2018-12-29T02:28:32.993Z,31.73
2018-12-29T02:31:03.877Z,30.70
2018-12-29T02:33:34.765Z,31.63
2018-12-29T02:36:05.778Z,31.97
2018-12-29T02:38:36.485Z,30.67
2018-12-29T02:41:07.411Z,31.27
2018-12-29T02:43:38.736Z,27.97
2018-12-29T02:46:09.670Z,26.50
2018-12-29T02:48:40.462Z,26.13
2018-12-29T02:51:11.410Z,24.00
2018-12-29T02:53:42.226Z,24.70
2018-12-29T02:56:13.110Z,23.20
2018-12-29T02:58:43.958Z,24.97
2018-12-29T03:01:14.797Z,23.03
2018-12-29T03:03:45.589Z,24.50
2018-12-29T03:06:16.470Z,24.70
2018-12-29T03:08:47.257Z,24.13
2018-12-29T03:11:18.113Z,23.70
2018-12-29T03:13:48.991Z,24.60
2018-12-29T03:16:19.899Z,22.97
2018-12-29T03:18:50.776Z,22.67
2018-12-29T03:21:21.689Z,22.87
2018-12-29T03:23:52.540Z,23.90
2018-12-29T03:26:23.381Z,23.83
2018-12-29T03:28:54.161Z,23.47
2018-12-29T03:31:25.049Z,23.20
2018-12-29T03:33:55.912Z,22.57
2018-12-29T03:36:26.810Z,22.90
2018-12-29T03:38:57.621Z,23.20
2018-12-29T03:41:28.508Z,22.07
2018-12-29T03:43:59.394Z,22.73
2018-12-29T03:46:30.349Z,21.97
2018-12-29T03:49:01.171Z,23.07
2018-12-29T03:51:32.065Z,23.30
2018-12-29T03:54:02.856Z,21.93
2018-12-29T03:56:33.787Z,22.03
2018-12-29T03:59:04.643Z,22.67
2018-12-29T04:01:35.553Z,22.30
2018-12-29T04:04:06.349Z,23.00
2018-12-29T04:06:37.225Z,23.03
2018-12-29T04:09:32.634Z,22.17
2018-12-29T04:12:06.444Z,22.77
2018-12-29T04:14:37.265Z,22.13
2018-12-29T04:17:08.154Z,21.77
2018-12-29T04:19:38.864Z,21.77
2018-12-29T04:22:09.613Z,21.00
2018-12-29T04:24:40.426Z,22.83
2018-12-29T04:27:11.242Z,22.83
2018-12-29T04:29:41.967Z,22.93
2018-12-29T04:32:12.965Z,21.90
2018-12-29T04:34:43.846Z,22.93
2018-12-29T04:37:14.613Z,22.47
2018-12-29T04:39:45.476Z,23.93
2018-12-29T04:42:16.357Z,22.47
2018-12-29T04:44:47.128Z,21.67
2018-12-29T04:47:17.877Z,22.27
2018-12-29T04:49:48.672Z,20.90
2018-12-29T04:52:19.544Z,20.27
2018-12-29T04:54:50.508Z,21.63
2018-12-29T04:57:21.252Z,19.73
2018-12-29T04:59:52.049Z,20.77
2018-12-29T05:02:22.890Z,20.60
2018-12-29T05:04:53.621Z,21.50
2018-12-29T05:07:24.429Z,21.20
2018-12-29T05:09:55.294Z,21.20
2018-12-29T05:12:26.109Z,20.67
2018-12-29T05:14:56.909Z,20.70
2018-12-29T05:17:27.957Z,19.70
2018-12-29T05:19:58.736Z,20.97
2018-12-29T05:22:29.490Z,20.63
2018-12-29T05:25:00.347Z,19.77
2018-12-29T05:27:31.112Z,19.30
2018-12-29T05:30:01.896Z,20.23
2018-12-29T05:32:32.777Z,19.57
2018-12-29T05:35:03.704Z,19.17
2018-12-29T05:37:34.688Z,18.90
2018-12-29T05:40:05.652Z,18.03
2018-12-29T05:42:36.481Z,18.20
2018-12-29T05:45:07.461Z,18.53
2018-12-29T05:47:38.301Z,17.93
2018-12-29T05:50:09.082Z,16.80
2018-12-29T05:52:40.021Z,17.87
2018-12-29T05:55:10.738Z,18.03
2018-12-29T05:57:41.473Z,16.67
2018-12-29T06:00:12.358Z,16.70
2018-12-29T06:02:43.191Z,17.17
2018-12-29T06:05:13.967Z,18.10
2018-12-29T06:07:44.860Z,17.97
2018-12-29T06:10:15.665Z,17.17
2018-12-29T06:12:46.545Z,17.23
2018-12-29T06:15:17.344Z,16.63
2018-12-29T06:17:49.736Z,17.27
2018-12-29T06:20:20.534Z,16.40
2018-12-29T06:22:51.340Z,16.17
2018-12-29T06:25:22.193Z,16.50
2018-12-29T06:27:53.077Z,17.30
2018-12-29T06:30:23.941Z,17.13
2018-12-29T06:32:54.693Z,17.37
2018-12-29T06:35:25.554Z,16.70
2018-12-29T06:37:56.541Z,15.90
2018-12-29T06:40:27.392Z,16.33
2018-12-29T06:42:58.265Z,15.77
2018-12-29T06:45:29.000Z,15.80
2018-12-29T06:47:59.784Z,15.87
2018-12-29T06:50:30.533Z,15.87
2018-12-29T06:53:01.408Z,16.47
2018-12-29T06:55:32.305Z,16.03
2018-12-29T06:58:03.017Z,16.00
2018-12-29T07:00:33.925Z,16.13
2018-12-29T07:03:04.827Z,17.20
2018-12-29T07:05:35.637Z,16.47
2018-12-29T07:08:06.374Z,16.43
2018-12-29T07:10:37.152Z,17.00
2018-12-29T07:13:07.961Z,16.53
2018-12-29T07:15:39.110Z,17.70
2018-12-29T07:18:11.028Z,17.10
2018-12-29T07:20:41.744Z,17.50
2018-12-29T07:23:12.493Z,16.83
2018-12-29T07:25:44.325Z,18.00
2018-12-29T07:28:15.145Z,16.57
2018-12-29T07:30:45.929Z,16.87
2018-12-29T07:33:16.669Z,17.10
2018-12-29T07:35:47.452Z,16.50
2018-12-29T07:38:18.296Z,17.57
2018-12-29T07:40:49.090Z,17.10
2018-12-29T07:43:21.132Z,17.23
2018-12-29T07:45:51.917Z,17.27
2018-12-29T07:48:22.749Z,17.73
2018-12-29T07:50:53.613Z,17.70
2018-12-29T07:53:24.433Z,17.20
2018-12-29T07:55:55.234Z,18.13
2018-12-29T07:58:26.070Z,18.40
2018-12-29T08:00:56.999Z,18.73
2018-12-29T08:03:27.875Z,17.70
2018-12-29T08:05:58.652Z,18.50
2018-12-29T08:08:29.456Z,17.63
2018-12-29T08:11:00.250Z,18.80
2018-12-29T08:13:31.139Z,18.53
2018-12-29T08:16:01.989Z,19.47
2018-12-29T08:18:32.829Z,18.83
2018-12-29T08:21:03.680Z,19.80
2018-12-29T08:23:36.433Z,19.50
2018-12-29T08:26:07.320Z,19.83
2018-12-29T08:28:38.656Z,20.60
2018-12-29T08:31:09.523Z,20.27
2018-12-29T08:33:40.814Z,20.10
2018-12-29T08:36:12.084Z,19.23
2018-12-29T08:38:43.215Z,19.97
2018-12-29T08:41:14.213Z,20.00
2018-12-29T08:43:45.127Z,20.63
2018-12-29T08:46:15.886Z,22.00
2018-12-29T08:48:46.817Z,20.10
2018-12-29T08:51:17.673Z,20.30
2018-12-29T08:53:48.489Z,20.90
2018-12-29T08:56:19.389Z,20.37
2018-12-29T08:58:50.241Z,20.87
2018-12-29T09:01:21.117Z,20.07
2018-12-29T09:03:51.965Z,21.27
2018-12-29T09:06:24.316Z,20.80
2018-12-29T09:08:55.161Z,21.27
2018-12-29T09:11:25.985Z,20.27
2018-12-29T09:13:56.812Z,22.33
2018-12-29T09:16:27.628Z,22.10
2018-12-29T09:18:58.534Z,21.10
2018-12-29T09:21:29.413Z,20.87
2018-12-29T09:24:00.289Z,21.40
2018-12-29T09:26:31.157Z,21.77
2018-12-29T09:29:01.898Z,22.07
2018-12-29T09:31:32.762Z,22.27
2018-12-29T09:34:03.661Z,23.13
2018-12-29T09:36:34.449Z,23.10
2018-12-29T09:39:07.861Z,23.43
2018-12-29T09:41:38.832Z,23.13
2018-12-29T09:44:09.726Z,22.97
2018-12-29T09:46:40.584Z,23.23
2018-12-29T09:49:11.392Z,23.10
2018-12-29T09:51:43.316Z,22.90
2018-12-29T09:54:14.208Z,22.13
2018-12-29T09:56:44.980Z,22.90
2018-12-29T09:59:15.796Z,23.30
2018-12-29T10:01:46.686Z,23.33
2018-12-29T10:04:17.496Z,23.40
2018-12-29T10:06:48.221Z,23.60
2018-12-29T10:09:18.977Z,23.10
2018-12-29T10:11:49.833Z,22.67
2018-12-29T10:14:20.709Z,22.83
2018-12-29T10:16:51.610Z,23.50
2018-12-29T10:19:22.443Z,23.50
2018-12-29T10:21:53.216Z,23.67
2018-12-29T10:24:24.037Z,24.37
2018-12-29T10:26:54.945Z,24.47
2018-12-29T10:29:25.832Z,25.17
2018-12-29T10:31:56.688Z,25.23
2018-12-29T10:34:27.678Z,25.00
2018-12-29T10:36:58.461Z,25.10
2018-12-29T10:39:29.405Z,24.93
2018-12-29T10:42:00.332Z,25.07
2018-12-29T10:44:31.228Z,25.50
2018-12-29T10:47:02.012Z,25.20
2018-12-29T10:49:32.922Z,26.03
2018-12-29T10:52:03.777Z,26.67
2018-12-29T10:54:34.674Z,26.53
2018-12-29T10:57:05.549Z,27.17
2018-12-29T10:59:36.433Z,27.87
2018-12-29T11:02:07.334Z,25.60
2018-12-29T11:04:38.223Z,27.07
2018-12-29T11:07:09.060Z,26.03
2018-12-29T11:09:39.989Z,27.17
2018-12-29T11:12:10.856Z,29.30
2018-12-29T11:14:41.608Z,27.83
2018-12-29T11:17:12.381Z,27.77
2018-12-29T11:19:43.124Z,28.63
2018-12-29T11:22:14.012Z,28.67
2018-12-29T11:24:44.861Z,28.57
2018-12-29T11:27:15.740Z,28.00
2018-12-29T11:29:46.735Z,27.83
2018-12-29T11:32:17.509Z,27.37
2018-12-29T11:34:48.247Z,26.63
2018-12-29T11:37:18.969Z,28.67
2018-12-29T11:39:49.786Z,28.43
2018-12-29T11:42:20.596Z,28.87
2018-12-29T11:44:51.442Z,27.53
2018-12-29T11:47:22.285Z,29.43
2018-12-29T11:49:53.119Z,28.90
2018-12-29T11:52:25.662Z,28.80
2018-12-29T11:54:56.590Z,29.40
2018-12-29T11:57:27.472Z,28.80
2018-12-29T11:59:58.366Z,29.13
2018-12-29T12:02:29.284Z,30.13
2018-12-29T12:05:00.088Z,30.40
2018-12-29T12:07:30.984Z,32.40
2018-12-29T12:10:01.815Z,31.20
2018-12-29T12:12:32.728Z,29.60
2018-12-29T12:15:03.676Z,30.03
2018-12-29T12:17:34.424Z,30.87
2018-12-29T12:20:05.621Z,29.60
2018-12-29T12:22:36.629Z,30.17
2018-12-29T12:25:07.564Z,27.63
2018-12-29T12:27:38.528Z,29.67
2018-12-29T12:30:09.361Z,27.73
2018-12-29T12:32:40.222Z,27.57
2018-12-29T12:35:11.114Z,27.40
2018-12-29T12:37:41.969Z,26.00
2018-12-29T12:40:13.822Z,26.47
2018-12-29T12:42:44.592Z,26.43
2018-12-29T12:45:15.404Z,27.00
2018-12-29T12:47:46.424Z,28.87
2018-12-29T12:50:17.301Z,27.87
2018-12-29T12:52:48.152Z,27.07
2018-12-29T12:55:19.069Z,25.23
2018-12-29T12:57:49.920Z,26.33
2018-12-29T13:00:21.182Z,27.63
2018-12-29T13:02:51.993Z,26.43
2018-12-29T13:05:23.004Z,27.10
2018-12-29T13:07:57.438Z,26.03
2018-12-29T13:10:28.544Z,26.20
2018-12-29T13:13:11.739Z,24.50
2018-12-29T13:15:54.196Z,26.70
2018-12-29T13:18:25.073Z,27.10
2018-12-29T13:21:08.300Z,25.70
2018-12-29T13:23:39.278Z,27.10
2018-12-29T13:26:11.378Z,25.63
2018-12-29T13:28:42.390Z,24.67
2018-12-29T13:31:26.349Z,25.57
2018-12-29T13:33:57.177Z,24.47
2018-12-29T13:36:27.988Z,26.30
2018-12-29T13:38:58.909Z,24.80
2018-12-29T13:41:29.725Z,25.07
2018-12-29T13:44:00.685Z,23.70
2018-12-29T13:46:31.506Z,24.13
2018-12-29T13:49:14.376Z,26.93
2018-12-29T13:51:45.124Z,25.07
2018-12-29T13:54:16.121Z,24.37
2018-12-29T13:56:47.021Z,23.40
2018-12-29T13:59:17.741Z,22.43
2018-12-29T14:01:49.408Z,23.07
2018-12-29T14:04:20.605Z,23.97
2018-12-29T14:07:02.806Z,21.83
2018-12-29T14:09:33.592Z,24.30
2018-12-29T14:12:25.563Z,22.73
2018-12-29T14:15:07.988Z,22.00
2018-12-29T14:17:40.509Z,20.60
2018-12-29T14:20:42.383Z,22.23
2018-12-29T14:23:13.385Z,22.10
2018-12-29T14:25:44.460Z,21.90
2018-12-29T14:28:15.417Z,20.90
2018-12-29T14:30:47.716Z,20.87
2018-12-29T14:33:18.830Z,20.93
2018-12-29T14:35:49.948Z,21.10
2018-12-29T14:38:33.216Z,21.10
2018-12-29T14:41:04.625Z,21.70
2018-12-29T14:43:38.255Z,20.43
2018-12-29T14:46:09.122Z,19.77
2018-12-29T14:48:54.319Z,21.07
2018-12-29T14:51:26.480Z,19.67
2018-12-29T14:53:57.622Z,20.20
2018-12-29T14:56:28.544Z,20.17
2018-12-29T14:59:11.759Z,19.43
2018-12-29T15:01:43.060Z,19.23
2018-12-29T15:04:14.173Z,19.07
2018-12-29T15:06:56.777Z,18.73
2018-12-29T15:09:27.789Z,19.17
2018-12-29T15:12:10.738Z,17.87
2018-12-29T15:15:01.061Z,18.23
2018-12-29T15:17:32.258Z,17.90
2018-12-29T15:20:15.404Z,18.40
2018-12-29T15:22:46.472Z,17.80
2018-12-29T15:25:29.037Z,17.80
2018-12-29T15:28:11.869Z,17.10
2018-12-29T15:30:42.942Z,17.70
2018-12-29T15:33:25.551Z,16.57
2018-12-29T15:35:56.833Z,16.53
2018-12-29T15:38:27.801Z,16.60
2018-12-29T15:40:59.201Z,16.33
2018-12-29T15:43:30.255Z,18.53
2018-12-29T15:46:13.151Z,17.83
2018-12-29T15:48:56.098Z,17.90
2018-12-29T15:51:39.235Z,16.07
2018-12-29T15:54:10.212Z,16.60
2018-12-29T15:56:43.264Z,16.07
2018-12-29T15:59:14.087Z,16.00
2018-12-29T16:01:45.160Z,16.10
2018-12-29T16:04:16.166Z,16.80
2018-12-29T16:06:47.157Z,17.43
2018-12-29T16:09:30.375Z,16.93
2018-12-29T16:12:02.061Z,16.57
2018-12-29T16:14:53.538Z,16.77
2018-12-29T16:17:36.552Z,17.07
2018-12-29T16:20:08.857Z,16.30
2018-12-29T16:22:39.849Z,16.30
2018-12-29T16:25:10.951Z,16.10
2018-12-29T16:27:41.993Z,15.97
2018-12-29T16:30:12.873Z,14.60
2018-12-29T16:32:43.982Z,14.87
2018-12-29T16:35:25.031Z,14.83
2018-12-29T16:37:56.473Z,14.60
2018-12-29T16:40:27.388Z,15.10
2018-12-29T16:42:58.358Z,14.30
2018-12-29T16:45:29.424Z,14.57
2018-12-29T16:48:04.538Z,15.20
2018-12-29T16:50:35.965Z,14.47
2018-12-29T16:53:19.422Z,15.40
2018-12-29T16:56:02.747Z,14.77
2018-12-29T16:58:47.376Z,15.50
2018-12-29T17:01:18.353Z,14.60
2018-12-29T17:03:50.465Z,15.33
2018-12-29T17:06:33.484Z,14.93
2018-12-29T17:09:16.139Z,14.73
2018-12-29T17:11:52.313Z,15.40
2018-12-29T17:14:19.659Z,14.97
2018-12-29T17:16:50.747Z,14.63
2018-12-29T17:19:21.608Z,14.30
2018-12-29T17:22:04.080Z,14.43
2018-12-29T17:24:35.047Z,14.07
2018-12-29T17:27:07.168Z,14.00
2018-12-29T17:29:38.072Z,14.07
2018-12-29T17:32:08.963Z,14.50
2018-12-29T17:34:39.902Z,13.40
2018-12-29T17:37:22.650Z,13.40
2018-12-29T17:39:53.994Z,13.37
2018-12-29T17:42:25.177Z,13.13
2018-12-29T17:45:07.501Z,13.93
2018-12-29T17:47:49.881Z,13.47
2018-12-29T17:50:20.864Z,13.90
2018-12-29T17:52:51.741Z,13.77
2018-12-29T17:55:22.951Z,14.03
2018-12-29T17:57:54.297Z,13.60
2018-12-29T18:00:25.424Z,13.57
2018-12-29T18:03:08.152Z,13.90
2018-12-29T18:05:50.497Z,14.70
2018-12-29T18:08:21.517Z,15.43
2018-12-29T18:10:52.555Z,15.43
2018-12-29T18:13:23.835Z,16.07
2018-12-29T18:16:06.149Z,16.07
2018-12-29T18:18:56.120Z,15.10
2018-12-29T18:21:27.092Z,13.83
2018-12-29T18:24:09.766Z,14.27
2018-12-29T18:26:40.833Z,14.90
2018-12-29T18:29:11.796Z,15.13
2018-12-29T18:31:54.958Z,15.67
2018-12-29T18:34:25.956Z,16.10
2018-12-29T18:36:56.968Z,15.80
2018-12-29T18:39:28.066Z,15.40
2018-12-29T18:42:10.946Z,15.00
2018-12-29T18:44:41.682Z,15.50
2018-12-29T18:47:12.585Z,15.93
2018-12-29T18:49:55.564Z,15.60
2018-12-29T18:52:26.548Z,16.73
2018-12-29T18:54:57.669Z,17.03
2018-12-29T18:57:28.548Z,17.10
2018-12-29T19:00:11.327Z,17.70
2018-12-29T19:02:43.293Z,17.60
2018-12-29T19:05:14.091Z,18.27
2018-12-29T19:07:44.925Z,17.20
2018-12-29T19:10:27.886Z,17.53
2018-12-29T19:12:58.845Z,17.00
2018-12-29T19:15:41.169Z,17.43
2018-12-29T19:18:24.348Z,15.70
2018-12-29T19:20:55.218Z,17.40
2018-12-29T19:23:26.329Z,18.83
2018-12-29T19:26:09.554Z,19.37
2018-12-29T19:28:40.646Z,18.40
2018-12-29T19:31:11.812Z,17.80
2018-12-29T19:33:42.762Z,19.03
2018-12-29T19:36:25.228Z,17.60
2018-12-29T19:38:56.099Z,18.90
2018-12-29T19:41:26.996Z,18.67
2018-12-29T19:43:58.469Z,16.73
2018-12-29T19:46:29.664Z,17.00
2018-12-29T19:49:00.499Z,17.50
2018-12-29T19:51:31.710Z,17.60
2018-12-29T19:54:02.574Z,17.53
2018-12-29T19:56:45.519Z,17.23
2018-12-29T19:59:16.687Z,16.20
2018-12-29T20:01:47.456Z,15.87
2018-12-29T20:04:20.600Z,15.83
2018-12-29T20:07:02.798Z,16.50
2018-12-29T20:09:33.705Z,16.93
2018-12-29T20:12:04.642Z,15.77
2018-12-29T20:14:35.421Z,15.10
2018-12-29T20:17:06.214Z,15.27
2018-12-29T20:19:37.155Z,15.70
2018-12-29T20:22:20.329Z,15.67
2018-12-29T20:24:54.028Z,14.53
2018-12-29T20:27:24.937Z,14.87
2018-12-29T20:29:55.854Z,15.83
2018-12-29T20:32:26.624Z,15.07
2018-12-29T20:34:57.360Z,15.30
2018-12-29T20:37:28.218Z,14.90
2018-12-29T20:39:58.994Z,14.53
2018-12-29T20:42:30.110Z,14.87
2018-12-29T20:45:01.184Z,13.50
2018-12-29T20:47:32.846Z,14.40
2018-12-29T20:50:09.513Z,13.53
2018-12-29T20:52:37.230Z,13.90
2018-12-29T20:55:08.145Z,14.27
2018-12-29T20:57:39.078Z,14.60
2018-12-29T21:00:10.667Z,14.47
2018-12-29T21:02:41.599Z,13.57
2018-12-29T21:05:13.009Z,13.27
2018-12-29T21:07:43.910Z,14.10
2018-12-29T21:10:26.859Z,13.70
2018-12-29T21:12:57.688Z,13.87
2018-12-29T21:15:28.841Z,13.87
2018-12-29T21:18:11.740Z,14.20
2018-12-29T21:20:42.659Z,13.40
2018-12-29T21:23:25.460Z,13.70
2018-12-29T21:25:56.205Z,14.73
2018-12-29T21:28:26.993Z,14.73
2018-12-29T21:30:57.806Z,13.73
2018-12-29T21:33:29.380Z,13.40
2018-12-29T21:36:00.241Z,12.90
2018-12-29T21:38:31.025Z,11.70
2018-12-29T21:41:01.856Z,11.37
2018-12-29T21:43:32.720Z,11.53
2018-12-29T21:46:03.665Z,11.83
2018-12-29T21:48:34.634Z,11.53
2018-12-29T21:51:05.570Z,11.37
2018-12-29T21:53:36.360Z,11.80
2018-12-29T21:56:07.324Z,11.77
2018-12-29T21:58:50.066Z,12.90
2018-12-29T22:01:21.113Z,12.10
2018-12-29T22:03:51.977Z,11.60
2018-12-29T22:06:34.487Z,11.90
2018-12-29T22:09:07.074Z,13.73
2018-12-29T22:11:38.113Z,12.10
2018-12-29T22:14:20.898Z,11.87
2018-12-29T22:16:51.858Z,11.33
2018-12-29T22:19:22.714Z,12.27
2018-12-29T22:21:53.545Z,12.33
2018-12-29T22:24:24.602Z,12.07
2018-12-29T22:26:55.544Z,11.87
2018-12-29T22:29:38.184Z,12.53
2018-12-29T22:32:09.092Z,13.40
2018-12-29T22:34:39.787Z,13.50
2018-12-29T22:37:22.578Z,13.70
2018-12-29T22:40:06.510Z,13.17
2018-12-29T22:42:38.341Z,13.33
2018-12-29T22:45:21.670Z,13.40
2018-12-29T22:47:52.496Z,14.37
2018-12-29T22:50:23.354Z,13.87
2018-12-29T22:52:54.245Z,14.73
2018-12-29T22:55:25.401Z,13.33
2018-12-29T22:57:56.301Z,13.53
2018-12-29T23:00:40.173Z,14.17
2018-12-29T23:03:11.169Z,13.47
2018-12-29T23:05:42.163Z,13.83
2018-12-29T23:08:13.400Z,14.33
2018-12-29T23:10:56.309Z,13.90
2018-12-29T23:13:27.141Z,13.77
2018-12-29T23:16:10.017Z,13.60
2018-12-29T23:18:52.246Z,13.53
2018-12-29T23:21:23.133Z,13.13
2018-12-29T23:23:53.973Z,13.50
2018-12-29T23:26:24.881Z,13.77
2018-12-29T23:28:55.714Z,13.13
2018-12-29T23:31:26.555Z,13.33
2018-12-29T23:33:57.449Z,13.60
2018-12-29T23:36:28.729Z,13.50
2018-12-29T23:38:59.742Z,13.30
2018-12-29T23:41:30.449Z,13.33
2018-12-29T23:44:01.269Z,13.03
2018-12-29T23:46:32.053Z,13.77
2018-12-29T23:49:02.889Z,13.43
2018-12-29T23:51:33.732Z,13.60
2018-12-29T23:54:04.668Z,13.40
2018-12-29T23:56:35.789Z,14.87
2018-12-29T23:59:06.700Z,13.97
